Time;durP1;ratioP1;P1;durP2;ratioP2;P2;SDS_P1;SDS_P2;PMS_P1;PMS_P2;Temp;Humidity;BMP_temperature;BMP_pressure;BME280_temperature;BME280_humidity;BME280_pressure;Samples;Min_cycle;Max_cycle;Signal;HPM_P1;HPM_P2
2022/10/05 00:00:54;;;;;;;8.73;2.08;;;19.40;99.90;;;;;;5069564;28;20036;-62
2022/10/05 00:03:21;;;;;;;2.10;1.58;;;19.50;99.90;;;;;;5058182;28;20045;-62
2022/10/05 00:05:48;;;;;;;3.00;2.17;;;19.50;99.90;;;;;;5074002;28;20040;-61
2022/10/05 00:08:22;;;;;;;4.70;2.05;;;19.50;99.90;;;;;;5072625;28;20036;-62
2022/10/05 00:10:48;;;;;;;9.57;2.30;;;19.50;99.90;;;;;;5054592;28;20507;-61
2022/10/05 00:13:22;;;;;;;6.47;2.10;;;19.40;99.90;;;;;;5054312;28;20045;-61
2022/10/05 00:15:49;;;;;;;3.63;1.85;;;19.50;99.90;;;;;;5066104;28;20112;-62
2022/10/05 00:18:16;;;;;;;6.45;2.70;;;19.40;99.90;;;;;;5074687;28;20024;-62
2022/10/05 00:20:43;;;;;;;5.25;2.17;;;19.50;99.90;;;;;;5074826;28;20540;-62
2022/10/05 00:23:20;;;;;;;3.67;2.00;;;19.50;99.90;;;;;;5063903;28;20076;-62
2022/10/05 00:25:46;;;;;;;3.88;2.45;;;19.40;99.90;;;;;;5053936;28;20667;-62
2022/10/05 00:28:26;;;;;;;9.10;2.47;;;19.50;99.90;;;;;;5066680;28;20071;-62
2022/10/05 00:30:58;;;;;;;5.95;2.58;;;19.50;99.90;;;;;;5059284;28;20072;-62
2022/10/05 00:33:25;;;;;;;4.25;1.98;;;19.50;99.90;;;;;;5061224;28;20128;-61
2022/10/05 00:35:50;;;;;;;8.50;2.53;;;19.40;99.90;;;;;;5074500;28;20504;-62
2022/10/05 00:38:16;;;;;;;4.57;2.25;;;19.40;99.90;;;;;;5072809;28;20115;-61
2022/10/05 00:41:12;;;;;;;6.15;2.50;;;19.60;99.90;;;;;;5056396;28;20392;-62
2022/10/05 00:43:47;;;;;;;5.88;2.65;;;19.50;99.90;;;;;;5059419;28;20490;-62
2022/10/05 00:46:16;;;;;;;4.57;2.55;;;19.40;99.90;;;;;;5073243;28;20040;-62
2022/10/05 00:49:08;;;;;;;6.45;2.38;;;19.50;99.90;;;;;;5073028;28;20028;-62
2022/10/05 00:51:36;;;;;;;8.13;2.60;;;19.50;99.90;;;;;;5072737;28;20414;-62
2022/10/05 00:54:28;;;;;;;7.80;2.42;;;19.50;99.90;;;;;;5062113;28;20045;-62
2022/10/05 00:57:28;;;;;;;5.15;2.20;;;19.50;99.90;;;;;;5069087;28;20036;-62
2022/10/05 01:00:09;;;;;;;6.57;2.38;;;19.50;99.90;;;;;;5060417;28;20498;-61
2022/10/05 01:05:45;;;;;;;5.30;2.38;;;19.60;99.90;;;;;;5376574;22;20141;-62
2022/10/05 01:08:25;;;;;;;8.50;3.42;;;19.50;99.90;;;;;;4992672;28;20042;-63
2022/10/05 01:11:06;;;;;;;9.75;2.25;;;19.60;99.90;;;;;;4994544;28;20053;-62
2022/10/05 01:13:59;;;;;;;6.97;2.25;;;19.50;99.90;;;;;;4991034;28;20384;-62
2022/10/05 01:16:25;;;;;;;11.13;2.42;;;19.50;99.90;;;;;;4992500;28;20093;-62
2022/10/05 01:19:15;;;;;;;8.85;2.50;;;19.50;99.90;;;;;;4992767;28;20404;-62
2022/10/05 01:21:52;;;;;;;5.43;2.25;;;19.40;99.90;;;;;;4994795;28;20072;-61
2022/10/05 01:24:38;;;;;;;8.02;3.00;;;19.50;99.90;;;;;;4992989;28;20038;-62
2022/10/05 01:27:30;;;;;;;8.80;2.25;;;19.40;99.90;;;;;;4992986;28;20096;-62
2022/10/05 01:30:01;;;;;;;6.93;2.67;;;19.50;99.90;;;;;;4974857;28;20054;-62
2022/10/05 01:32:32;;;;;;;6.80;2.47;;;19.40;99.90;;;;;;4990095;28;20117;-61
2022/10/05 01:35:15;;;;;;;5.38;2.88;;;19.40;99.90;;;;;;4993044;28;20034;-62
2022/10/05 01:37:46;;;;;;;4.25;2.38;;;19.50;99.90;;;;;;4992714;28;20034;-61
2022/10/05 01:40:28;;;;;;;2.83;2.00;;;19.30;99.90;;;;;;4992413;28;20040;-61
2022/10/05 01:43:13;;;;;;;4.30;2.40;;;19.40;99.90;;;;;;4992720;28;20065;-62
2022/10/05 01:46:02;;;;;;;6.43;2.20;;;19.40;99.90;;;;;;4980517;28;20519;-62
2022/10/05 01:48:54;;;;;;;3.65;2.20;;;19.50;99.90;;;;;;4993469;28;20046;-61
2022/10/05 01:52:03;;;;;;;8.85;3.47;;;19.50;99.90;;;;;;4993608;28;20128;-62
2022/10/05 01:54:43;;;;;;;4.45;2.20;;;19.40;99.90;;;;;;4991977;28;20038;-62
2022/10/05 01:57:15;;;;;;;3.85;1.98;;;19.40;99.90;;;;;;4977334;28;20406;-62
2022/10/05 02:00:02;;;;;;;8.68;2.42;;;19.40;99.90;;;;;;4974709;28;20637;-62
2022/10/05 02:02:29;;;;;;;3.65;1.92;;;19.50;99.90;;;;;;4991809;28;20377;-62
2022/10/05 02:05:02;;;;;;;2.85;1.95;;;19.50;99.90;;;;;;4992508;28;20058;-62
2022/10/05 02:07:41;;;;;;;3.13;1.73;;;19.50;99.90;;;;;;4992778;28;20526;-62
2022/10/05 02:10:34;;;;;;;4.85;2.22;;;19.40;99.90;;;;;;4993004;28;20479;-62
2022/10/05 02:13:09;;;;;;;3.63;2.00;;;19.40;99.90;;;;;;4992452;28;20034;-62
2022/10/05 02:15:51;;;;;;;5.80;2.33;;;19.30;99.90;;;;;;4993050;28;20122;-62
2022/10/05 02:18:23;;;;;;;3.28;2.42;;;19.40;99.90;;;;;;4993802;28;20046;-61
2022/10/05 02:20:53;;;;;;;8.65;2.17;;;19.40;99.90;;;;;;4992236;28;20049;-62
2022/10/05 02:23:31;;;;;;;2.90;2.10;;;19.30;99.90;;;;;;4992294;28;20578;-62
2022/10/05 02:25:57;;;;;;;3.78;2.08;;;19.30;99.90;;;;;;4992059;28;20053;-62
2022/10/05 02:28:42;;;;;;;3.90;2.03;;;19.30;99.90;;;;;;4974109;28;20508;-61
2022/10/05 02:31:22;;;;;;;4.30;2.13;;;19.30;99.90;;;;;;4993015;28;20034;-62
2022/10/05 02:33:48;;;;;;;5.90;2.38;;;19.40;99.90;;;;;;4991294;28;20464;-62
2022/10/05 02:36:18;;;;;;;2.92;1.88;;;19.40;99.90;;;;;;4993150;28;20053;-62
2022/10/05 02:38:52;;;;;;;5.32;2.15;;;19.40;99.90;;;;;;4993544;28;20034;-62
2022/10/05 02:41:34;;;;;;;5.57;2.35;;;19.30;99.90;;;;;;4974439;28;20046;-62
2022/10/05 02:44:22;;;;;;;4.97;2.15;;;19.40;99.90;;;;;;4982282;28;20377;-62
2022/10/05 02:47:28;;;;;;;5.22;2.13;;;19.40;99.90;;;;;;4985239;28;20093;-62
2022/10/05 02:50:14;;;;;;;6.63;2.08;;;19.40;99.90;;;;;;4992098;28;20065;-61
2022/10/05 02:52:43;;;;;;;;;;;19.30;99.90;;;;;;4975109;28;20105;-61
2022/10/05 02:55:18;;;;;;;3.53;1.80;;;19.40;99.90;;;;;;4975134;28;19934;-62
2022/10/05 02:58:03;;;;;;;2.13;1.75;;;19.40;99.90;;;;;;4974544;28;20069;-62
2022/10/05 03:00:39;;;;;;;6.18;2.15;;;19.40;99.90;;;;;;4991381;28;20452;-62
2022/10/05 03:03:12;;;;;;;4.10;2.27;;;19.30;99.90;;;;;;4991741;28;20053;-62
2022/10/05 03:05:50;;;;;;;8.43;2.30;;;19.40;99.90;;;;;;4974763;28;20046;-62
2022/10/05 03:08:35;;;;;;;6.00;2.08;;;19.30;99.90;;;;;;4991017;28;20104;-62
2022/10/05 03:11:21;;;;;;;6.10;2.17;;;19.40;99.90;;;;;;4992289;28;20077;-61
2022/10/05 03:14:05;;;;;;;3.70;2.10;;;19.30;99.90;;;;;;4973504;28;20066;-62
2022/10/05 03:16:59;;;;;;;6.22;2.03;;;19.30;99.90;;;;;;4973703;28;20125;-62
2022/10/05 03:19:32;;;;;;;5.18;2.35;;;19.30;99.90;;;;;;4992568;28;20053;-62
2022/10/05 03:22:16;;;;;;;3.38;1.90;;;19.40;99.90;;;;;;4991162;28;20408;-62
2022/10/05 03:25:10;;;;;;;3.45;1.80;;;19.40;99.90;;;;;;4991374;28;20439;-61
2022/10/05 03:27:47;;;;;;;3.95;2.10;;;19.50;99.90;;;;;;4957311;28;20085;-62
2022/10/05 03:30:17;;;;;;;3.80;1.67;;;19.50;99.90;;;;;;4992273;28;20116;-62
2022/10/05 03:32:57;;;;;;;3.05;1.80;;;19.50;99.90;;;;;;4974821;28;20038;-62
2022/10/05 03:35:30;;;;;;;4.75;1.98;;;19.40;99.90;;;;;;4985698;28;20057;-62
2022/10/05 03:38:35;;;;;;;3.08;1.55;;;19.50;99.90;;;;;;4992348;28;20052;-62
2022/10/05 03:41:23;;;;;;;3.95;1.77;;;19.40;99.90;;;;;;4976045;28;20046;-62
2022/10/05 03:43:54;;;;;;;4.57;1.77;;;19.50;99.90;;;;;;4966707;28;20054;-62
2022/10/05 03:46:22;;;;;;;3.88;1.90;;;19.50;99.90;;;;;;4989328;28;20065;-62
2022/10/05 03:49:05;;;;;;;3.53;1.83;;;19.40;99.90;;;;;;4992341;28;20547;-61
2022/10/05 03:51:34;;;;;;;6.28;2.40;;;19.50;99.90;;;;;;4990398;28;20081;-62
2022/10/05 03:54:09;;;;;;;6.82;2.25;;;19.50;99.90;;;;;;4992019;28;20559;-62
2022/10/05 03:56:44;;;;;;;4.43;1.90;;;19.50;99.90;;;;;;4982259;28;20496;-62
2022/10/05 03:59:21;;;;;;;2.17;1.40;;;19.50;99.90;;;;;;4990759;28;20113;-61
2022/10/05 04:01:52;;;;;;;3.53;1.60;;;19.50;99.90;;;;;;4989947;28;20042;-63
2022/10/05 04:04:36;;;;;;;3.38;1.23;;;19.30;99.90;;;;;;4990634;28;20057;-62
2022/10/05 04:07:03;;;;;;;2.63;1.50;;;19.30;99.90;;;;;;4992163;28;20046;-62
2022/10/05 04:09:35;;;;;;;1.73;1.30;;;19.40;99.90;;;;;;4991153;28;20065;-62
2022/10/05 04:12:31;;;;;;;3.28;1.48;;;19.40;99.90;;;;;;4972787;28;20050;-62
2022/10/05 04:15:01;;;;;;;3.95;1.33;;;19.30;99.90;;;;;;4990801;28;20042;-62
2022/10/05 04:17:33;;;;;;;3.30;1.35;;;19.70;99.90;;;;;;4991606;28;20640;-62
2022/10/05 04:20:03;;;;;;;6.28;2.83;;;19.50;99.90;;;;;;4991584;28;20150;-61
2022/10/05 04:22:37;;;;;;;4.38;1.50;;;19.50;99.90;;;;;;4989354;28;20548;-62
2022/10/05 04:25:17;;;;;;;2.30;1.23;;;19.40;99.90;;;;;;4989896;28;20049;-62
2022/10/05 04:28:05;;;;;;;3.13;1.30;;;19.40;99.90;;;;;;4990370;28;20046;-62
2022/10/05 04:30:34;;;;;;;1.88;1.13;;;19.40;99.90;;;;;;4985300;28;20046;-62
2022/10/05 04:33:00;;;;;;;1.95;1.05;;;19.40;99.90;;;;;;4989662;28;20089;-62
2022/10/05 04:36:10;;;;;;;4.70;1.35;;;19.50;99.90;;;;;;4991479;28;20046;-62
2022/10/05 04:39:01;;;;;;;2.17;1.35;;;19.40;99.90;;;;;;4988841;28;20031;-62
2022/10/05 04:41:51;;;;;;;3.10;1.45;;;19.40;99.90;;;;;;4990385;28;20030;-62
2022/10/05 04:44:40;;;;;;;4.97;1.10;;;19.40;99.90;;;;;;4990584;28;20460;-62
2022/10/05 04:47:21;;;;;;;2.63;1.33;;;19.40;99.90;;;;;;4982752;28;20117;-62
2022/10/05 04:50:08;;;;;;;4.47;1.40;;;19.40;99.90;;;;;;4975878;28;20073;-62
2022/10/05 04:52:55;;;;;;;0.95;0.90;;;19.40;99.90;;;;;;4988013;28;20533;-62
2022/10/05 04:55:28;;;;;;;2.03;1.02;;;19.40;99.90;;;;;;4992528;28;20041;-62
2022/10/05 04:58:21;;;;;;;1.55;0.95;;;19.50;99.90;;;;;;4975310;28;20042;-62
2022/10/05 05:01:30;;;;;;;3.22;1.17;;;19.50;99.90;;;;;;4986528;28;20044;-62
2022/10/05 05:04:07;;;;;;;4.68;1.80;;;19.50;99.90;;;;;;4985469;28;20415;-62
2022/10/05 05:07:04;;;;;;;2.92;1.02;;;19.40;99.90;;;;;;4985470;28;20053;-62
2022/10/05 05:09:45;;;;;;;2.95;1.40;;;19.40;99.90;;;;;;4965578;28;20469;-62
2022/10/05 05:12:26;;;;;;;1.80;1.50;;;19.40;99.90;;;;;;4970662;28;20169;-62
2022/10/05 05:15:19;;;;;;;3.85;1.50;;;19.40;99.90;;;;;;4968356;28;20058;-62
2022/10/05 05:18:17;;;;;;;3.25;1.30;;;19.40;99.90;;;;;;4982519;28;20037;-61
2022/10/05 05:20:58;;;;;;;2.85;1.50;;;19.30;99.90;;;;;;4988366;28;20050;-62
2022/10/05 05:23:39;;;;;;;2.75;1.60;;;19.30;99.90;;;;;;4990312;28;20073;-62
2022/10/05 05:26:25;;;;;;;2.05;1.75;;;19.30;99.90;;;;;;4986452;28;20516;-62
2022/10/05 05:29:04;;;;;;;3.47;1.85;;;19.30;99.90;;;;;;4965554;28;20046;-62
2022/10/05 05:31:47;;;;;;;3.28;2.20;;;19.30;99.90;;;;;;4988424;28;20077;-62
2022/10/05 05:34:40;;;;;;;4.18;2.38;;;19.40;99.90;;;;;;4972968;28;20042;-62
2022/10/05 05:37:27;;;;;;;4.90;3.10;;;19.20;99.90;;;;;;4991115;28;20053;-62
2022/10/05 05:40:08;;;;;;;4.28;3.15;;;19.20;99.90;;;;;;4991348;28;20050;-61
2022/10/05 05:42:55;;;;;;;6.32;3.65;;;19.10;99.90;;;;;;4992557;28;20498;-62
2022/10/05 05:45:38;;;;;;;6.30;3.47;;;19.20;99.90;;;;;;4992328;28;20388;-61
2022/10/05 05:48:46;;;;;;;5.20;3.53;;;19.10;99.90;;;;;;4993854;28;20076;-62
2022/10/05 05:51:29;;;;;;;6.25;3.45;;;19.10;99.90;;;;;;4983027;28;20046;-62
2022/10/05 05:54:14;;;;;;;5.97;3.45;;;19.10;99.90;;;;;;4974207;28;20089;-61
2022/10/05 05:56:50;;;;;;;5.50;3.13;;;19.10;99.90;;;;;;4970717;28;20539;-61
2022/10/05 05:59:32;;;;;;;4.00;2.80;;;19.20;99.90;;;;;;4991214;28;20035;-61
2022/10/05 06:02:10;;;;;;;5.20;3.35;;;19.10;99.90;;;;;;4991334;28;20042;-61
2022/10/05 06:04:49;;;;;;;5.40;3.63;;;19.10;99.90;;;;;;4990821;28;20042;-61
2022/10/05 06:07:19;;;;;;;8.90;3.33;;;19.10;99.90;;;;;;4987427;28;20256;-61
2022/10/05 06:09:55;;;;;;;5.68;3.78;;;19.10;99.90;;;;;;4989560;28;20588;-61
2022/10/05 06:12:32;;;;;;;8.95;2.92;;;19.20;99.90;;;;;;5000236;28;20051;-62
2022/10/05 06:15:11;;;;;;;5.63;3.47;;;19.60;99.90;;;;;;4985869;28;20050;-62
2022/10/05 06:17:44;;;;;;;6.80;3.63;;;19.10;99.90;;;;;;4989570;28;20034;-62
2022/10/05 06:20:39;;;;;;;7.03;3.42;;;19.20;99.90;;;;;;4984926;28;20497;-61
2022/10/05 06:23:33;;;;;;;5.05;3.40;;;19.10;99.90;;;;;;4967123;28;20062;-62
2022/10/05 06:26:23;;;;;;;4.80;2.92;;;19.20;99.90;;;;;;4984128;28;20531;-61
2022/10/05 06:28:57;;;;;;;4.63;3.13;;;19.20;99.90;;;;;;4974167;28;20063;-61
2022/10/05 06:31:51;;;;;;;8.05;3.63;;;19.20;99.90;;;;;;4984593;28;20050;-62
2022/10/05 06:34:51;;;;;;;7.45;2.63;;;19.20;99.90;;;;;;4988614;28;20034;-61
2022/10/05 06:37:35;;;;;;;4.75;2.80;;;19.20;99.90;;;;;;4963551;28;20061;-62
2022/10/05 06:40:24;;;;;;;6.95;3.00;;;19.20;99.90;;;;;;4985654;28;20048;-61
2022/10/05 06:43:18;;;;;;;5.60;2.97;;;19.20;99.90;;;;;;4990536;28;20089;-61
2022/10/05 06:46:31;;;;;;;5.68;2.88;;;19.30;99.90;;;;;;4987419;28;20461;-61
2022/10/05 06:49:18;;;;;;;5.32;3.28;;;19.30;99.90;;;;;;4953194;28;20068;-61
2022/10/05 06:51:55;;;;;;;12.07;3.00;;;19.30;99.90;;;;;;4991768;28;20070;-61
2022/10/05 06:55:00;;;;;;;6.10;2.80;;;19.20;99.90;;;;;;4991842;28;20065;-61
2022/10/05 06:57:57;;;;;;;3.97;2.70;;;19.30;99.90;;;;;;4992746;28;20082;-61
2022/10/05 07:00:34;;;;;;;2.25;2.05;;;19.30;99.90;;;;;;4992686;28;20510;-61
2022/10/05 07:03:08;;;;;;;4.30;2.80;;;19.30;99.90;;;;;;4992532;28;20044;-61
2022/10/05 07:05:54;;;;;;;2.45;2.00;;;19.40;99.90;;;;;;4958265;28;20039;-62
2022/10/05 07:08:39;;;;;;;7.78;2.60;;;19.40;99.90;;;;;;4990809;28;20503;-61
2022/10/05 07:11:26;;;;;;;7.20;2.30;;;19.40;99.90;;;;;;4987801;28;20125;-62
2022/10/05 07:13:51;;;;;;;;;;;19.60;99.90;;;;;;4988115;28;20046;-62
2022/10/05 07:16:23;;;;;;;4.97;2.37;;;19.60;99.90;;;;;;4990333;28;19921;-62
2022/10/05 07:18:57;;;;;;;2.10;1.90;;;19.60;99.90;;;;;;4988315;28;20034;-62
2022/10/05 07:22:01;;;;;;;8.50;2.47;;;19.70;99.90;;;;;;4979884;28;20034;-63
2022/10/05 07:24:32;;;;;;;4.07;2.17;;;19.70;99.90;;;;;;4985452;28;20039;-62
2022/10/05 07:27:02;;;;;;;2.83;1.85;;;19.70;99.90;;;;;;4984102;28;20053;-62
2022/10/05 07:29:49;;;;;;;9.52;2.40;;;19.70;99.90;;;;;;4974742;28;20050;-63
2022/10/05 07:32:36;;;;;;;7.15;2.38;;;19.70;99.90;;;;;;4982264;28;20051;-62
2022/10/05 07:38:08;;;;;;;3.55;1.70;;;19.80;99.90;;;;;;4989728;28;20077;-63
2022/10/05 07:40:54;;;;;;;4.68;1.88;;;19.90;99.90;;;;;;4987126;28;20133;-62
2022/10/05 07:43:50;;;;;;;4.70;1.88;;;20.00;99.90;;;;;;4988564;28;20042;-62
2022/10/05 07:46:45;;;;;;;2.22;1.42;;;20.00;99.90;;;;;;4989233;28;20085;-62
2022/10/05 07:49:22;;;;;;;3.92;1.92;;;20.20;99.90;;;;;;4968352;28;20084;-62
2022/10/05 07:51:53;;;;;;;5.15;1.70;;;20.20;99.90;;;;;;4991649;28;20072;-63
2022/10/05 07:55:00;;;;;;;2.63;1.73;;;20.20;99.90;;;;;;4983571;28;20088;-63
2022/10/05 07:57:32;;;;;;;3.13;1.77;;;20.30;99.90;;;;;;4970143;28;20081;-62
2022/10/05 08:00:22;;;;;;;6.18;1.70;;;20.20;99.90;;;;;;4985899;28;20038;-62
2022/10/05 08:02:48;;;;;;;2.65;1.73;;;20.50;99.90;;;;;;4962584;28;20065;-62
2022/10/05 08:05:22;;;;;;;2.53;1.60;;;20.60;99.90;;;;;;4978891;28;20412;-62
2022/10/05 08:07:53;;;;;;;4.07;1.73;;;20.70;99.90;;;;;;4989097;28;20092;-63
2022/10/05 08:10:38;;;;;;;4.20;1.48;;;20.70;99.90;;;;;;4991057;28;20054;-62
2022/10/05 08:13:15;;;;;;;3.03;1.80;;;20.70;99.90;;;;;;4988951;28;20039;-63
2022/10/05 08:15:44;;;;;;;3.40;1.52;;;20.80;99.90;;;;;;4988124;28;20038;-63
2022/10/05 08:18:18;;;;;;;3.65;1.60;;;20.90;99.90;;;;;;4989491;28;20098;-63
2022/10/05 08:20:50;;;;;;;2.10;1.13;;;20.90;99.90;;;;;;4987482;28;20034;-62
2022/10/05 08:23:32;;;;;;;3.50;1.10;;;20.90;99.90;;;;;;4990516;28;20538;-63
2022/10/05 08:26:35;;;;;;;2.45;1.30;;;21.10;99.90;;;;;;4981832;28;20534;-63
2022/10/05 08:29:21;;;;;;;3.90;1.50;;;21.10;99.90;;;;;;4990797;28;20035;-63
2022/10/05 08:31:50;;;;;;;4.68;1.75;;;21.00;99.90;;;;;;4981760;28;20046;-63
2022/10/05 08:34:33;;;;;;;1.63;1.13;;;21.20;99.90;;;;;;4992901;28;20458;-63
2022/10/05 08:37:19;;;;;;;6.00;1.50;;;21.30;99.90;;;;;;4988258;28;20105;-63
2022/10/05 08:39:51;;;;;;;3.67;1.40;;;21.20;99.90;;;;;;4989044;28;20125;-63
2022/10/05 08:42:42;;;;;;;3.08;1.85;;;21.50;99.90;;;;;;4988869;28;20031;-63
2022/10/05 08:45:52;;;;;;;1.55;1.20;;;21.70;99.90;;;;;;4990382;28;20073;-63
2022/10/05 08:48:32;;;;;;;3.35;1.20;;;21.80;99.90;;;;;;4985675;28;20700;-63
2022/10/05 08:51:14;;;;;;;1.55;1.17;;;22.00;99.90;;;;;;4984794;28;20078;-63
2022/10/05 08:53:57;;;;;;;1.25;1.02;;;21.90;99.90;;;;;;4988179;28;20031;-63
2022/10/05 08:56:42;;;;;;;3.80;1.67;;;21.90;99.90;;;;;;4991482;28;20074;-63
2022/10/05 08:59:55;;;;;;;4.55;1.30;;;22.00;99.90;;;;;;4994028;28;20395;-63
2022/10/05 09:02:40;;;;;;;5.32;1.10;;;22.00;99.90;;;;;;5001088;28;20049;-63
2022/10/05 09:05:47;;;;;;;3.40;1.25;;;22.10;99.90;;;;;;4989046;28;20043;-63
2022/10/05 09:08:33;;;;;;;;;;;22.10;99.90;;;;;;4953925;28;20133;-63
2022/10/05 09:11:25;;;;;;;3.60;1.63;;;22.00;99.90;;;;;;4964377;28;20004;-63
2022/10/05 09:14:04;;;;;;;3.33;1.67;;;22.10;99.90;;;;;;4990477;28;20034;-63
2022/10/05 09:17:07;;;;;;;8.10;1.50;;;21.90;99.90;;;;;;4991155;28;20042;-63
2022/10/05 09:20:13;;;;;;;2.78;1.60;;;22.00;99.90;;;;;;4991931;28;20395;-63
2022/10/05 09:22:57;;;;;;;2.78;1.60;;;22.00;99.90;;;;;;4962917;28;20500;-63
2022/10/05 09:25:42;;;;;;;3.50;1.52;;;22.00;99.90;;;;;;4990325;28;20113;-63
2022/10/05 09:28:23;;;;;;;3.13;1.45;;;22.00;99.90;;;;;;4988316;28;20133;-63
2022/10/05 09:31:08;;;;;;;4.85;1.88;;;21.90;99.90;;;;;;4992955;28;20060;-63
2022/10/05 09:34:01;;;;;;;3.25;1.38;;;21.80;99.90;;;;;;4990883;28;20403;-63
2022/10/05 09:36:57;;;;;;;19.80;1.65;;;21.70;99.90;;;;;;4990168;28;20567;-63
2022/10/05 09:39:50;;;;;;;4.03;1.40;;;21.50;99.90;;;;;;4988025;28;20042;-63
2022/10/05 09:42:21;;;;;;;2.30;1.52;;;21.30;99.90;;;;;;4985811;28;20407;-64
2022/10/05 09:45:19;;;;;;;3.88;1.70;;;21.20;99.90;;;;;;4987446;28;20050;-63
2022/10/05 09:48:30;;;;;;;4.22;1.52;;;21.20;99.90;;;;;;4983059;28;20044;-63
2022/10/05 09:51:11;;;;;;;4.68;1.90;;;21.10;99.90;;;;;;4986740;28;20034;-63
2022/10/05 09:54:07;;;;;;;3.25;1.40;;;21.10;99.90;;;;;;4984723;28;20039;-63
2022/10/05 09:56:58;;;;;;;4.25;1.80;;;21.10;99.90;;;;;;4985578;28;20036;-63
2022/10/05 09:59:27;;;;;;;10.82;1.83;;;21.10;99.90;;;;;;4990653;28;20065;-63
2022/10/05 10:02:26;;;;;;;2.65;1.50;;;21.00;99.90;;;;;;4988676;28;20038;-63
2022/10/05 10:05:04;;;;;;;4.35;1.70;;;21.00;99.90;;;;;;4987115;28;20070;-63
2022/10/05 10:08:15;;;;;;;5.82;1.70;;;21.10;99.90;;;;;;4985599;28;20054;-63
2022/10/05 10:10:56;;;;;;;3.45;1.40;;;21.00;99.90;;;;;;4982816;28;20451;-63
2022/10/05 10:13:40;;;;;;;4.70;1.58;;;20.90;99.90;;;;;;4990520;28;20480;-62
2022/10/05 10:16:17;;;;;;;4.75;1.88;;;20.90;99.90;;;;;;4988677;28;20043;-63
2022/10/05 10:19:22;;;;;;;2.85;1.63;;;21.00;99.90;;;;;;4989178;28;20034;-63
2022/10/05 10:22:26;;;;;;;4.13;1.60;;;20.90;99.90;;;;;;4986341;28;20049;-63
2022/10/05 10:25:13;;;;;;;4.30;2.10;;;20.90;99.90;;;;;;4982623;28;20082;-62
2022/10/05 10:27:52;;;;;;;4.15;1.73;;;20.90;99.90;;;;;;4991350;28;20515;-62
2022/10/05 10:30:51;;;;;;;2.33;1.38;;;20.90;99.90;;;;;;4992026;28;20061;-62
2022/10/05 10:33:38;;;;;;;7.70;1.73;;;20.90;99.90;;;;;;4977775;28;20037;-61
2022/10/05 10:36:11;;;;;;;4.20;1.70;;;20.80;99.90;;;;;;4992683;28;20415;-62
2022/10/05 10:38:57;;;;;;;2.83;1.40;;;20.80;99.90;;;;;;4993222;28;20042;-62
2022/10/05 10:41:58;;;;;;;6.90;1.97;;;20.70;99.90;;;;;;4993024;28;20043;-61
2022/10/05 10:44:41;;;;;;;5.00;1.70;;;20.80;99.90;;;;;;4992885;28;20215;-62
2022/10/05 10:47:26;;;;;;;3.35;1.48;;;20.70;99.90;;;;;;4992471;28;20042;-61
2022/10/05 10:50:16;;;;;;;8.10;3.00;;;20.70;99.90;;;;;;4993084;28;20042;-61
2022/10/05 10:53:13;;;;;;;3.38;1.40;;;20.70;99.90;;;;;;4992875;28;20046;-61
2022/10/05 10:55:50;;;;;;;5.72;1.75;;;20.70;99.90;;;;;;4990503;28;20377;-61
2022/10/05 10:58:43;;;;;;;3.50;1.40;;;20.80;99.90;;;;;;4991792;28;20042;-61
2022/10/05 11:01:28;;;;;;;2.08;1.58;;;20.70;99.90;;;;;;4992755;28;20049;-61
2022/10/05 11:04:45;;;;;;;6.00;2.33;;;20.60;99.90;;;;;;4992833;28;20085;-61
2022/10/05 11:07:48;;;;;;;3.63;1.40;;;20.60;99.90;;;;;;4991070;28;20054;-62
2022/10/05 11:10:18;;;;;;;8.77;1.48;;;20.60;99.90;;;;;;4979448;28;20042;-61
2022/10/05 11:13:20;;;;;;;5.03;1.50;;;20.60;99.90;;;;;;4986411;28;20488;-62
2022/10/05 11:16:08;;;;;;;5.10;1.67;;;20.50;99.90;;;;;;4992047;28;20050;-62
2022/10/05 11:19:11;;;;;;;2.60;1.33;;;20.40;99.90;;;;;;4991365;28;20051;-61
2022/10/05 11:22:06;;;;;;;2.97;1.40;;;20.40;99.90;;;;;;4990390;28;20080;-62
2022/10/05 11:25:00;;;;;;;4.72;1.70;;;20.40;99.90;;;;;;4993569;28;20088;-61
2022/10/05 11:27:25;;;;;;;8.70;1.88;;;20.40;99.90;;;;;;5002552;28;20061;-62
2022/10/05 11:30:09;;;;;;;4.80;1.35;;;20.30;99.90;;;;;;4993716;28;20042;-61
2022/10/05 11:32:57;;;;;;;3.58;1.63;;;20.30;99.90;;;;;;4987696;28;20045;-61
2022/10/05 11:35:59;;;;;;;4.07;1.50;;;20.30;99.90;;;;;;4988663;28;20035;-61
2022/10/05 11:39:06;;;;;;;2.95;1.67;;;20.30;99.90;;;;;;4983475;28;20126;-61
2022/10/05 11:41:50;;;;;;;;;;;20.30;99.90;;;;;;4992107;28;20500;-61
2022/10/05 11:44:37;;;;;;;3.92;1.40;;;20.30;99.90;;;;;;4990788;28;19925;-61
2022/10/05 11:47:15;;;;;;;3.53;1.40;;;20.30;99.90;;;;;;4991964;28;20064;-61
2022/10/05 11:50:05;;;;;;;4.80;1.45;;;20.30;99.90;;;;;;4990769;28;20042;-62
2022/10/05 11:52:54;;;;;;;2.75;1.55;;;20.30;99.90;;;;;;4983674;28;20057;-61
2022/10/05 11:55:28;;;;;;;2.40;1.42;;;20.30;99.90;;;;;;4984878;28;20578;-61
2022/10/05 11:57:57;;;;;;;4.97;1.27;;;20.30;99.90;;;;;;4994128;28;20041;-61
2022/10/05 12:00:31;;;;;;;4.72;1.25;;;20.30;99.90;;;;;;4977427;28;20057;-61
2022/10/05 12:03:34;;;;;;;4.47;1.27;;;20.30;99.90;;;;;;4989636;28;20050;-62
2022/10/05 12:06:20;;;;;;;5.10;1.55;;;20.40;99.90;;;;;;4994145;28;20065;-61
2022/10/05 12:09:03;;;;;;;3.22;1.20;;;20.40;99.90;;;;;;4969233;28;20060;-61
2022/10/05 12:11:47;;;;;;;4.68;1.38;;;20.40;99.90;;;;;;5015480;28;20048;-61
2022/10/05 12:14:27;;;;;;;2.67;1.48;;;20.30;99.90;;;;;;4998211;28;20117;-62
2022/10/05 12:17:03;;;;;;;2.83;0.88;;;20.30;99.90;;;;;;4986873;28;20044;-61
2022/10/05 12:19:41;;;;;;;2.60;1.13;;;20.20;99.90;;;;;;5003661;28;20074;-61
2022/10/05 12:22:32;;;;;;;5.25;1.70;;;20.30;99.90;;;;;;4993291;28;20100;-61
2022/10/05 12:25:20;;;;;;;2.25;1.00;;;20.30;99.90;;;;;;4975953;28;20052;-61
2022/10/05 12:27:52;;;;;;;3.42;1.23;;;20.20;99.90;;;;;;4984112;28;20439;-61
2022/10/05 12:30:28;;;;;;;4.68;1.40;;;20.20;99.90;;;;;;4995440;28;20074;-61
2022/10/05 12:33:14;;;;;;;;;;;20.20;99.90;;;;;;4995751;28;20038;-62
2022/10/05 12:35:47;;;;;;;3.25;1.38;;;20.20;99.90;;;;;;4983929;28;20377;-61
2022/10/05 12:38:27;;;;;;;2.25;1.20;;;20.20;99.90;;;;;;4988143;28;20137;-61
2022/10/05 12:41:04;;;;;;;4.55;1.35;;;20.30;99.90;;;;;;4964895;28;20065;-62
2022/10/05 12:43:36;;;;;;;2.97;1.30;;;20.30;99.90;;;;;;4995476;28;20046;-62
2022/10/05 12:46:08;;;;;;;3.42;1.27;;;20.40;99.90;;;;;;4995011;28;20042;-61
2022/10/05 12:48:54;;;;;;;1.77;1.02;;;20.30;99.90;;;;;;4995311;28;20050;-62
2022/10/05 12:51:45;;;;;;;4.07;1.17;;;20.40;99.90;;;;;;4995551;28;20069;-62
2022/10/05 12:54:23;;;;;;;2.83;1.50;;;20.40;99.90;;;;;;4994847;28;20105;-62
2022/10/05 12:57:10;;;;;;;11.70;1.50;;;20.50;99.90;;;;;;4972682;28;20570;-62
2022/10/05 13:00:16;;;;;;;1.42;1.30;;;20.70;99.90;;;;;;4975489;28;20126;-62
2022/10/05 13:02:50;;;;;;;1.30;1.20;;;20.90;99.90;;;;;;4952062;28;20050;-62
2022/10/05 13:05:36;;;;;;;2.22;1.38;;;21.30;99.90;;;;;;4991204;28;20563;-62
2022/10/05 13:08:12;;;;;;;4.25;1.52;;;21.00;99.90;;;;;;4993937;28;20061;-62
2022/10/05 13:10:58;;;;;;;4.55;1.38;;;21.10;99.90;;;;;;4993962;28;20506;-63
2022/10/05 13:13:41;;;;;;;4.05;1.70;;;21.10;99.90;;;;;;4986092;28;20074;-62
2022/10/05 13:16:13;;;;;;;4.22;1.30;;;21.20;99.90;;;;;;4976559;28;20571;-62
2022/10/05 13:18:57;;;;;;;2.92;1.40;;;21.20;99.90;;;;;;4993667;28;20042;-62
2022/10/05 13:21:29;;;;;;;3.25;1.50;;;21.40;99.90;;;;;;4994251;28;20049;-62
2022/10/05 13:24:13;;;;;;;2.13;1.50;;;21.30;99.90;;;;;;4993518;28;20129;-62
2022/10/05 13:26:44;;;;;;;4.30;2.00;;;21.40;99.90;;;;;;4993369;28;20096;-62
2022/10/05 13:29:37;;;;;;;3.40;1.63;;;21.40;99.90;;;;;;4994705;28;20042;-62
2022/10/05 13:32:11;;;;;;;2.20;1.65;;;21.20;99.90;;;;;;4994174;28;20042;-62
2022/10/05 13:34:48;;;;;;;3.35;1.77;;;21.20;99.90;;;;;;4993964;28;20046;-62
2022/10/05 13:37:32;;;;;;;3.03;1.80;;;21.00;99.90;;;;;;4976834;28;20042;-62
2022/10/05 13:40:03;;;;;;;3.38;1.70;;;21.00;99.90;;;;;;4994259;28;20050;-62
2022/10/05 13:42:36;;;;;;;3.97;1.90;;;21.50;99.90;;;;;;4993499;28;20042;-62
2022/10/05 13:45:12;;;;;;;1.63;1.52;;;20.80;99.90;;;;;;4993603;28;20125;-63
2022/10/05 13:47:56;;;;;;;3.03;1.95;;;20.80;99.90;;;;;;4976873;28;20092;-62
2022/10/05 13:51:26;;;;;;;6.55;2.00;;;20.80;99.90;;;;;;4994084;28;20074;-62
2022/10/05 13:54:12;;;;;;;1.77;1.52;;;20.90;99.90;;;;;;4910464;29;20052;-62
2022/10/05 13:56:55;;;;;;;;;;;20.80;99.90;;;;;;4913137;29;20048;-62
2022/10/05 13:59:39;;;;;;;5.32;1.77;;;20.70;99.90;;;;;;4984982;28;20375;-62
2022/10/05 14:02:08;;;;;;;3.42;1.60;;;20.70;99.90;;;;;;4993074;28;20092;-62
2022/10/05 14:04:56;;;;;;;4.07;1.45;;;20.70;99.90;;;;;;4989346;28;20144;-62
2022/10/05 14:07:33;;;;;;;4.65;2.17;;;20.60;99.90;;;;;;4990187;28;20046;-63
2022/10/05 14:10:00;;;;;;;4.90;1.40;;;20.60;99.90;;;;;;4993531;28;20058;-63
2022/10/05 14:12:27;;;;;;;3.72;1.77;;;20.50;99.90;;;;;;4993700;28;20046;-62
2022/10/05 14:14:55;;;;;;;3.53;1.85;;;20.60;99.90;;;;;;4993407;28;20039;-62